Time;durP1;ratioP1;P1;durP2;ratioP2;P2;SDS_P1;SDS_P2;PMS_P1;PMS_P2;Temp;Humidity;BMP_temperature;BMP_pressure;BME280_temperature;BME280_humidity;BME280_pressure;Samples;Min_cycle;Max_cycle;Signal;HPM_P1;HPM_P2
2024/03/25 00:00:18;;;;;;;8.87;4.43;;;;;;;;;;4974081;28;20241;-82
2024/03/25 00:02:45;;;;;;;14.20;4.93;;;;;;;;;;4967455;28;20203;-81
2024/03/25 00:05:21;;;;;;;14.17;4.87;;;;;;;;;;4975761;28;20284;-85
2024/03/25 00:07:49;;;;;;;12.13;4.63;;;;;;;;;;5003470;28;20220;-85
2024/03/25 00:10:15;;;;;;;12.03;5.07;;;;;;;;;;4990893;28;20929;-86
2024/03/25 00:12:40;;;;;;;12.70;4.60;;;;;;;;;;4966842;28;20229;-85
2024/03/25 00:15:08;;;;;;;11.10;4.43;;;;;;;;;;4984221;28;20230;-82
2024/03/25 00:17:36;;;;;;;10.53;4.50;;;;;;;;;;4971726;28;20348;-85
2024/03/25 00:20:05;;;;;;;9.00;4.30;;;;;;;;;;4969288;28;20230;-84
2024/03/25 00:22:31;;;;;;;10.43;4.30;;;;;;;;;;4987567;28;20229;-83
2024/03/25 00:24:59;;;;;;;11.90;4.60;;;;;;;;;;4957402;28;20226;-84
2024/03/25 00:27:24;;;;;;;11.53;4.07;;;;;;;;;;4970695;28;20224;-85
2024/03/25 00:29:53;;;;;;;8.23;3.90;;;;;;;;;;4974926;28;20221;-81
2024/03/25 00:32:21;;;;;;;12.10;4.33;;;;;;;;;;5024933;28;20210;-79
2024/03/25 00:34:47;;;;;;;9.63;3.90;;;;;;;;;;4991170;28;20233;-80
2024/03/25 00:37:12;;;;;;;11.13;3.90;;;;;;;;;;4982583;28;20305;-82
2024/03/25 00:39:45;;;;;;;10.70;4.30;;;;;;;;;;4968087;28;20217;-82
2024/03/25 00:42:10;;;;;;;14.20;4.03;;;;;;;;;;4949554;28;20232;-83
2024/03/25 00:44:36;;;;;;;10.27;3.83;;;;;;;;;;5005087;28;20984;-84
2024/03/25 00:47:03;;;;;;;10.80;4.30;;;;;;;;;;4967163;28;20226;-85
2024/03/25 00:49:29;;;;;;;8.83;3.67;;;;;;;;;;4984755;28;20237;-85
2024/03/25 00:51:57;;;;;;;11.03;3.93;;;;;;;;;;4966711;28;20244;-84
2024/03/25 00:54:28;;;;;;;9.83;4.37;;;;;;;;;;4997147;28;20233;-83
2024/03/25 00:56:53;;;;;;;8.80;4.10;;;;;;;;;;4968016;28;20230;-85
2024/03/25 00:59:19;;;;;;;8.50;3.80;;;;;;;;;;4983722;28;20225;-83
2024/03/25 01:01:47;;;;;;;6.60;3.17;;;;;;;;;;4982077;28;20660;-82
2024/03/25 01:04:15;;;;;;;7.07;3.40;;;;;;;;;;4987819;28;20232;-85
2024/03/25 01:06:43;;;;;;;9.83;3.93;;;;;;;;;;4956896;28;20233;-83
2024/03/25 01:09:10;;;;;;;8.10;4.10;;;;;;;;;;4964417;28;20225;-85
2024/03/25 01:11:35;;;;;;;10.30;3.50;;;;;;;;;;4958027;28;20324;-84
2024/03/25 01:14:01;;;;;;;5.97;3.73;;;;;;;;;;5000001;28;20698;-84
2024/03/25 01:16:26;;;;;;;10.10;4.03;;;;;;;;;;5000542;28;20243;-86
2024/03/25 01:18:54;;;;;;;8.80;3.23;;;;;;;;;;4984816;28;20229;-85
2024/03/25 01:21:20;;;;;;;7.57;3.40;;;;;;;;;;4983961;28;20232;-86
2024/03/25 01:23:45;;;;;;;10.87;3.77;;;;;;;;;;4993092;28;20217;-81
2024/03/25 01:26:11;;;;;;;11.17;3.30;;;;;;;;;;4990518;28;20236;-84
2024/03/25 01:28:39;;;;;;;13.87;3.93;;;;;;;;;;4989925;28;20225;-86
2024/03/25 01:31:04;;;;;;;9.00;3.80;;;;;;;;;;4977606;28;20229;-82
2024/03/25 01:33:32;;;;;;;10.97;3.80;;;;;;;;;;4986832;28;20229;-82
2024/03/25 01:35:57;;;;;;;8.40;3.13;;;;;;;;;;5002682;28;20283;-85
2024/03/25 01:38:23;;;;;;;8.50;3.53;;;;;;;;;;4983362;28;20886;-83
2024/03/25 01:40:51;;;;;;;9.73;3.70;;;;;;;;;;4976129;28;20304;-86
2024/03/25 01:43:16;;;;;;;11.13;3.73;;;;;;;;;;4967385;28;20225;-83
2024/03/25 01:45:42;;;;;;;8.37;3.90;;;;;;;;;;5004411;28;20632;-84
2024/03/25 01:48:12;;;;;;;9.70;3.67;;;;;;;;;;4985656;28;20222;-86
2024/03/25 01:50:42;;;;;;;9.13;3.80;;;;;;;;;;4989683;28;20817;-83
2024/03/25 01:53:11;;;;;;;13.47;5.03;;;;;;;;;;5004280;28;20309;-84
2024/03/25 01:55:38;;;;;;;12.87;3.93;;;;;;;;;;5006895;28;20381;-86
2024/03/25 01:58:07;;;;;;;8.13;3.37;;;;;;;;;;5002629;28;20225;-85
2024/03/25 02:00:35;;;;;;;7.90;3.33;;;;;;;;;;4986246;28;20568;-83
2024/03/25 02:03:05;;;;;;;11.17;3.40;;;;;;;;;;4985350;28;20258;-82
2024/03/25 02:05:31;;;;;;;5.93;3.40;;;;;;;;;;5002238;28;20233;-87
2024/03/25 02:07:56;;;;;;;7.70;3.10;;;;;;;;;;4957447;28;20303;-86
2024/03/25 02:10:24;;;;;;;7.43;3.70;;;;;;;;;;5000395;28;20218;-86
2024/03/25 02:12:52;;;;;;;9.50;3.33;;;;;;;;;;4975931;28;20230;-85
2024/03/25 02:15:18;;;;;;;6.57;2.90;;;;;;;;;;4987572;28;20261;-84
2024/03/25 02:17:46;;;;;;;8.93;3.57;;;;;;;;;;4974937;28;20229;-83
2024/03/25 02:20:15;;;;;;;6.67;3.10;;;;;;;;;;4999513;28;20230;-83
2024/03/25 02:22:43;;;;;;;7.73;3.47;;;;;;;;;;4983612;28;20265;-84
2024/03/25 02:25:11;;;;;;;6.50;3.13;;;;;;;;;;5003728;28;20221;-86
2024/03/25 02:27:40;;;;;;;7.37;3.33;;;;;;;;;;4976480;28;20244;-85
2024/03/25 02:30:07;;;;;;;10.07;3.67;;;;;;;;;;4959393;28;20260;-87
2024/03/25 02:32:35;;;;;;;6.17;2.93;;;;;;;;;;5003334;28;20226;-83
2024/03/25 02:35:02;;;;;;;6.17;2.60;;;;;;;;;;5003500;28;20288;-82
2024/03/25 02:37:27;;;;;;;4.23;3.00;;;;;;;;;;5004691;28;20222;-86
2024/03/25 02:39:58;;;;;;;7.83;3.00;;;;;;;;;;4990500;28;20304;-85
2024/03/25 02:42:26;;;;;;;3.27;2.60;;;;;;;;;;5011813;28;20219;-82
2024/03/25 02:44:53;;;;;;;6.67;3.00;;;;;;;;;;5007024;28;20547;-82
2024/03/25 02:47:19;;;;;;;6.10;2.80;;;;;;;;;;4975483;28;20225;-87
2024/03/25 02:49:45;;;;;;;5.03;2.60;;;;;;;;;;4986348;28;20229;-84
2024/03/25 02:52:11;;;;;;;4.73;2.73;;;;;;;;;;4984126;28;20750;-86
2024/03/25 02:54:38;;;;;;;8.50;3.27;;;;;;;;;;5004099;28;20236;-86
2024/03/25 02:57:04;;;;;;;7.53;3.03;;;;;;;;;;4983961;28;20229;-85
2024/03/25 02:59:30;;;;;;;6.93;3.30;;;;;;;;;;4975572;28;20274;-83
2024/03/25 03:01:57;;;;;;;6.60;3.40;;;;;;;;;;4989063;28;20301;-85
2024/03/25 03:04:23;;;;;;;7.03;3.60;;;;;;;;;;5004741;28;20240;-85
2024/03/25 03:06:48;;;;;;;9.23;3.60;;;;;;;;;;4973994;28;20229;-86
2024/03/25 03:09:14;;;;;;;8.63;3.93;;;;;;;;;;4974945;28;20229;-86
2024/03/25 03:11:42;;;;;;;8.27;3.50;;;;;;;;;;4961401;28;20257;-85
2024/03/25 03:14:07;;;;;;;7.83;3.33;;;;;;;;;;5007445;28;20268;-84
2024/03/25 03:16:33;;;;;;;9.40;3.13;;;;;;;;;;4975224;28;20228;-84
2024/03/25 03:19:00;;;;;;;6.80;3.37;;;;;;;;;;4974225;28;20217;-82
2024/03/25 03:21:29;;;;;;;8.07;3.23;;;;;;;;;;4985619;28;20221;-85
2024/03/25 03:23:58;;;;;;;8.37;2.93;;;;;;;;;;4975929;28;20277;-83
2024/03/25 03:26:27;;;;;;;5.80;2.87;;;;;;;;;;5002318;28;20230;-82
2024/03/25 03:28:58;;;;;;;8.27;3.20;;;;;;;;;;4975060;28;20298;-83
2024/03/25 03:31:23;;;;;;;10.40;2.70;;;;;;;;;;4976317;28;20267;-84
2024/03/25 03:33:51;;;;;;;7.93;2.67;;;;;;;;;;5010362;28;20221;-82
2024/03/25 03:36:21;;;;;;;6.03;2.60;;;;;;;;;;5005287;28;20233;-86
2024/03/25 03:38:47;;;;;;;5.23;2.63;;;;;;;;;;4958218;28;20225;-84
2024/03/25 03:41:14;;;;;;;5.63;2.70;;;;;;;;;;5003776;28;20214;-83
2024/03/25 03:43:40;;;;;;;8.37;2.70;;;;;;;;;;4985116;28;20994;-85
2024/03/25 03:46:06;;;;;;;5.83;2.30;;;;;;;;;;4972578;28;20222;-87
2024/03/25 03:48:31;;;;;;;6.63;2.70;;;;;;;;;;4989245;28;20221;-82
2024/03/25 03:50:57;;;;;;;7.07;2.27;;;;;;;;;;4973575;28;20792;-85
2024/03/25 03:53:25;;;;;;;3.30;2.63;;;;;;;;;;5000220;28;20225;-84
2024/03/25 03:55:57;;;;;;;5.83;2.70;;;;;;;;;;4997779;28;20221;-84
2024/03/25 04:02:10;;;;;;;7.33;2.80;;;;;;;;;;5003495;28;20236;-86
2024/03/25 04:04:35;;;;;;;5.13;2.73;;;;;;;;;;5006994;28;20598;-86
2024/03/25 04:07:02;;;;;;;5.40;3.03;;;;;;;;;;4989881;28;20602;-83
2024/03/25 04:09:30;;;;;;;6.67;3.13;;;;;;;;;;5001245;28;20738;-82
2024/03/25 04:11:57;;;;;;;8.47;3.30;;;;;;;;;;4986672;28;20221;-84
2024/03/25 04:14:26;;;;;;;7.17;3.13;;;;;;;;;;4984608;28;20232;-86
2024/03/25 04:16:53;;;;;;;8.30;3.40;;;;;;;;;;4969717;28;20224;-82
2024/03/25 04:19:27;;;;;;;6.83;3.30;;;;;;;;;;4989874;28;20279;-82
2024/03/25 04:21:57;;;;;;;7.67;4.10;;;;;;;;;;4967787;28;20231;-85
2024/03/25 04:24:23;;;;;;;8.63;3.73;;;;;;;;;;4970258;28;21676;-84
2024/03/25 04:26:49;;;;;;;7.30;3.53;;;;;;;;;;4971891;28;20312;-87
2024/03/25 04:29:16;;;;;;;6.13;3.73;;;;;;;;;;4991546;28;20227;-84
2024/03/25 04:31:41;;;;;;;7.33;4.37;;;;;;;;;;4964941;28;20252;-83
2024/03/25 04:34:09;;;;;;;12.10;4.53;;;;;;;;;;4982355;28;20226;-85
2024/03/25 04:36:34;;;;;;;9.03;4.50;;;;;;;;;;4986407;28;20228;-87
2024/03/25 04:39:03;;;;;;;9.63;4.60;;;;;;;;;;5001797;28;20284;-84
2024/03/25 04:41:29;;;;;;;8.10;4.37;;;;;;;;;;4994390;28;20236;-81
2024/03/25 04:43:57;;;;;;;7.77;4.13;;;;;;;;;;4991470;28;20221;-83
2024/03/25 04:46:27;;;;;;;6.63;4.60;;;;;;;;;;4982722;28;20212;-79
2024/03/25 04:48:55;;;;;;;10.27;4.60;;;;;;;;;;5002812;28;20786;-77
2024/03/25 04:51:21;;;;;;;9.57;4.67;;;;;;;;;;4979149;28;20285;-78
2024/03/25 04:53:46;;;;;;;9.83;3.90;;;;;;;;;;5003985;28;20226;-80
2024/03/25 04:56:12;;;;;;;7.40;4.40;;;;;;;;;;4996304;28;20281;-80
2024/03/25 04:58:38;;;;;;;8.83;4.40;;;;;;;;;;4958660;28;20245;-77
2024/03/25 05:01:06;;;;;;;7.13;3.87;;;;;;;;;;4955187;28;20218;-79
2024/03/25 05:03:31;;;;;;;8.37;4.40;;;;;;;;;;4982061;28;20236;-79
2024/03/25 05:05:58;;;;;;;7.57;3.70;;;;;;;;;;4971184;28;20293;-79
2024/03/25 05:08:23;;;;;;;9.60;4.37;;;;;;;;;;4955660;28;20225;-78
2024/03/25 05:10:49;;;;;;;7.83;3.90;;;;;;;;;;4998863;28;20267;-79
2024/03/25 05:13:19;;;;;;;11.80;4.10;;;;;;;;;;4966771;28;20249;-78
2024/03/25 05:15:53;;;;;;;6.40;4.20;;;;;;;;;;4972849;28;20229;-79
2024/03/25 05:18:19;;;;;;;9.13;4.23;;;;;;;;;;5004610;28;20307;-79
2024/03/25 05:20:50;;;;;;;7.43;4.37;;;;;;;;;;4956073;28;20221;-78
2024/03/25 05:23:17;;;;;;;8.43;4.30;;;;;;;;;;4984885;28;20597;-79
2024/03/25 05:25:43;;;;;;;6.40;4.00;;;;;;;;;;4972932;28;20228;-79
2024/03/25 05:28:08;;;;;;;7.63;4.27;;;;;;;;;;4963437;28;20225;-78
2024/03/25 05:30:36;;;;;;;6.80;4.20;;;;;;;;;;4982053;28;20267;-79
2024/03/25 05:33:01;;;;;;;7.27;4.50;;;;;;;;;;4998899;28;20966;-77
2024/03/25 05:35:27;;;;;;;8.50;4.27;;;;;;;;;;4998448;28;20373;-79
2024/03/25 05:37:53;;;;;;;9.07;4.60;;;;;;;;;;4986178;28;20257;-78
2024/03/25 05:40:19;;;;;;;6.13;4.10;;;;;;;;;;4968947;28;20237;-78
2024/03/25 05:42:47;;;;;;;8.07;4.67;;;;;;;;;;4995842;28;20220;-78
2024/03/25 05:45:15;;;;;;;8.70;5.00;;;;;;;;;;4969008;28;20329;-78
2024/03/25 05:47:43;;;;;;;9.17;4.23;;;;;;;;;;4987288;28;21281;-80
2024/03/25 05:50:09;;;;;;;12.53;4.53;;;;;;;;;;5000155;28;20232;-78
2024/03/25 05:52:35;;;;;;;8.50;4.40;;;;;;;;;;5001485;28;20283;-80
2024/03/25 05:55:01;;;;;;;10.07;4.30;;;;;;;;;;4990951;28;20229;-80
2024/03/25 05:57:26;;;;;;;8.13;4.57;;;;;;;;;;4999305;28;20693;-78
2024/03/25 05:59:52;;;;;;;8.00;4.37;;;;;;;;;;5003673;28;20229;-78
2024/03/25 06:02:17;;;;;;;6.57;4.30;;;;;;;;;;5001759;28;20229;-79
2024/03/25 06:04:43;;;;;;;12.93;8.00;;;;;;;;;;4958159;28;20222;-79
2024/03/25 06:07:08;;;;;;;15.50;8.87;;;;;;;;;;4960813;28;20705;-80
2024/03/25 06:09:34;;;;;;;9.70;4.30;;;;;;;;;;4970911;28;20221;-78
2024/03/25 06:12:00;;;;;;;10.27;4.30;;;;;;;;;;4999403;28;20232;-79
2024/03/25 06:14:28;;;;;;;9.80;4.37;;;;;;;;;;4995381;28;20268;-78
2024/03/25 06:16:54;;;;;;;8.83;4.90;;;;;;;;;;4993423;28;20240;-78
2024/03/25 06:19:24;;;;;;;7.80;4.37;;;;;;;;;;4971038;28;20868;-79
2024/03/25 06:21:50;;;;;;;8.53;4.93;;;;;;;;;;5010236;28;20221;-78
2024/03/25 06:24:15;;;;;;;9.23;5.30;;;;;;;;;;4965193;28;20221;-78
2024/03/25 06:26:41;;;;;;;9.20;5.63;;;;;;;;;;5005982;28;20240;-76
2024/03/25 06:29:06;;;;;;;10.20;5.60;;;;;;;;;;5001575;28;20229;-79
2024/03/25 06:34:21;;;;;;;10.50;5.40;;;;;;;;;;4996266;28;20328;-77
2024/03/25 06:36:49;;;;;;;11.00;5.83;;;;;;;;;;4989141;28;20264;-77
2024/03/25 06:39:18;;;;;;;13.20;6.90;;;;;;;;;;4963041;28;20281;-79
2024/03/25 06:41:44;;;;;;;14.70;6.40;;;;;;;;;;4977451;28;20260;-77
2024/03/25 06:44:09;;;;;;;11.50;6.40;;;;;;;;;;5004510;28;20229;-79
2024/03/25 06:46:35;;;;;;;10.03;6.03;;;;;;;;;;4972039;28;20245;-77
2024/03/25 06:49:00;;;;;;;11.13;6.07;;;;;;;;;;4992600;28;20232;-77
2024/03/25 06:51:26;;;;;;;15.17;6.17;;;;;;;;;;4943086;28;20229;-77
2024/03/25 06:53:52;;;;;;;13.83;6.50;;;;;;;;;;4938389;28;20256;-78
2024/03/25 06:56:18;;;;;;;13.23;6.63;;;;;;;;;;4998688;28;22326;-77
2024/03/25 06:58:43;;;;;;;14.90;6.43;;;;;;;;;;4979158;28;20205;-77
2024/03/25 07:01:09;;;;;;;13.33;6.90;;;;;;;;;;5034806;28;20228;-78
2024/03/25 07:03:35;;;;;;;11.43;6.07;;;;;;;;;;5004306;28;20229;-78
2024/03/25 07:06:02;;;;;;;15.93;7.00;;;;;;;;;;4978691;28;20240;-77
2024/03/25 07:08:28;;;;;;;16.60;6.83;;;;;;;;;;4993155;28;20229;-80
2024/03/25 07:10:56;;;;;;;14.07;6.40;;;;;;;;;;5004963;28;20221;-78
2024/03/25 07:13:24;;;;;;;16.13;6.27;;;;;;;;;;4987497;28;20224;-79
2024/03/25 07:15:49;;;;;;;15.27;5.93;;;;;;;;;;4991175;28;20233;-78
2024/03/25 07:18:15;;;;;;;12.23;5.70;;;;;;;;;;5000841;28;20605;-79
2024/03/25 07:20:41;;;;;;;13.10;5.50;;;;;;;;;;4986318;28;20221;-79
2024/03/25 07:23:07;;;;;;;13.57;5.23;;;;;;;;;;4998687;28;20232;-78
2024/03/25 07:25:32;;;;;;;10.03;4.90;;;;;;;;;;4984390;28;20230;-79
2024/03/25 07:27:58;;;;;;;14.23;5.30;;;;;;;;;;4988313;28;20217;-79
2024/03/25 07:30:27;;;;;;;15.47;5.30;;;;;;;;;;5000495;28;20229;-77
2024/03/25 07:32:53;;;;;;;15.37;5.50;;;;;;;;;;4986064;28;20863;-78
2024/03/25 07:35:19;;;;;;;13.33;6.20;;;;;;;;;;4989686;28;20233;-78
2024/03/25 07:37:46;;;;;;;18.97;5.43;;;;;;;;;;4987327;28;20248;-79
2024/03/25 07:40:12;;;;;;;12.03;5.17;;;;;;;;;;5003869;28;20225;-78
2024/03/25 07:42:40;;;;;;;13.50;5.47;;;;;;;;;;4986161;28;20231;-78
2024/03/25 07:45:07;;;;;;;10.60;4.73;;;;;;;;;;4977112;28;20232;-79
2024/03/25 07:47:32;;;;;;;11.50;4.70;;;;;;;;;;4991432;28;20221;-77
2024/03/25 07:50:00;;;;;;;11.07;5.17;;;;;;;;;;5001194;28;20826;-78
2024/03/25 07:52:27;;;;;;;11.57;4.60;;;;;;;;;;4974344;28;20218;-78
2024/03/25 07:54:57;;;;;;;10.60;4.50;;;;;;;;;;5006388;28;20256;-79
2024/03/25 07:57:23;;;;;;;9.17;3.93;;;;;;;;;;4987234;28;20432;-78
2024/03/25 07:59:50;;;;;;;10.93;4.17;;;;;;;;;;4989717;28;20677;-78
2024/03/25 08:02:16;;;;;;;12.03;4.47;;;;;;;;;;4999646;28;20232;-78
2024/03/25 08:04:44;;;;;;;13.33;3.93;;;;;;;;;;5001863;28;20233;-80
2024/03/25 08:07:14;;;;;;;13.67;4.00;;;;;;;;;;5001689;28;20225;-79
2024/03/25 08:09:39;;;;;;;10.67;3.80;;;;;;;;;;5000011;28;20248;-79
2024/03/25 08:12:05;;;;;;;10.43;3.80;;;;;;;;;;5001112;28;20228;-78
2024/03/25 08:14:31;;;;;;;8.83;4.53;;;;;;;;;;5000397;28;20242;-79
2024/03/25 08:16:59;;;;;;;11.80;4.03;;;;;;;;;;5001983;28;20244;-78
2024/03/25 08:19:25;;;;;;;9.93;4.23;;;;;;;;;;4990083;28;20252;-79
2024/03/25 08:21:50;;;;;;;13.67;4.23;;;;;;;;;;5005362;28;20221;-79
2024/03/25 08:24:19;;;;;;;8.47;4.40;;;;;;;;;;5004198;28;20221;-79
2024/03/25 08:26:49;;;;;;;10.77;4.40;;;;;;;;;;4973718;28;20313;-79
2024/03/25 08:29:14;;;;;;;14.13;4.20;;;;;;;;;;4983390;28;20225;-79
2024/03/25 08:31:42;;;;;;;12.73;4.30;;;;;;;;;;5001272;28;20213;-79
2024/03/25 08:34:10;;;;;;;11.70;4.47;;;;;;;;;;4999416;28;20225;-79
2024/03/25 08:36:38;;;;;;;10.50;4.30;;;;;;;;;;5004788;28;20220;-78
2024/03/25 08:39:04;;;;;;;14.90;4.23;;;;;;;;;;4972576;28;20236;-80
2024/03/25 08:41:29;;;;;;;12.27;4.70;;;;;;;;;;5003736;28;20217;-80
2024/03/25 08:43:55;;;;;;;10.50;3.93;;;;;;;;;;4999147;28;20229;-79
2024/03/25 08:46:21;;;;;;;14.67;4.00;;;;;;;;;;5003710;28;20522;-79
2024/03/25 08:48:46;;;;;;;12.43;4.20;;;;;;;;;;5003601;28;20232;-80
2024/03/25 08:51:14;;;;;;;11.37;4.60;;;;;;;;;;4971539;28;20221;-78
2024/03/25 08:53:43;;;;;;;12.23;4.70;;;;;;;;;;4965573;28;20251;-77
2024/03/25 08:56:11;;;;;;;13.30;4.43;;;;;;;;;;5003353;28;20248;-78
2024/03/25 08:58:37;;;;;;;9.80;4.73;;;;;;;;;;4983102;28;20650;-78
2024/03/25 09:01:05;;;;;;;12.87;4.70;;;;;;;;;;5003506;28;20233;-77
2024/03/25 09:03:33;;;;;;;12.50;4.40;;;;;;;;;;4988089;28;20229;-78
2024/03/25 09:05:58;;;;;;;11.10;4.13;;;;;;;;;;5001020;28;20221;-79
2024/03/25 09:08:26;;;;;;;11.87;4.73;;;;;;;;;;4992878;28;20216;-78
2024/03/25 09:11:04;;;;;;;14.33;4.47;;;;;;;;;;4986235;28;20675;-80
2024/03/25 09:13:30;;;;;;;17.77;5.97;;;;;;;;;;5008218;28;20282;-80
2024/03/25 09:15:56;;;;;;;11.73;4.03;;;;;;;;;;5013179;28;20592;-80
2024/03/25 09:18:23;;;;;;;14.77;4.93;;;;;;;;;;5004439;28;20224;-78
2024/03/25 09:20:51;;;;;;;12.30;4.13;;;;;;;;;;4976718;28;20229;-80
2024/03/25 09:23:17;;;;;;;10.83;4.40;;;;;;;;;;5002776;28;20275;-80
2024/03/25 09:25:53;;;;;;;15.20;3.83;;;;;;;;;;4954819;28;20983;-78
2024/03/25 09:28:18;;;;;;;8.97;3.80;;;;;;;;;;4957059;28;20249;-77
2024/03/25 09:30:44;;;;;;;9.83;4.17;;;;;;;;;;4984036;28;20292;-79
2024/03/25 09:33:09;;;;;;;9.70;3.60;;;;;;;;;;4989122;28;20288;-79
2024/03/25 09:35:36;;;;;;;10.60;3.83;;;;;;;;;;4986132;28;20241;-79
2024/03/25 09:38:02;;;;;;;8.60;3.90;;;;;;;;;;4992681;28;20633;-79
2024/03/25 09:40:29;;;;;;;12.83;4.43;;;;;;;;;;4991594;28;20333;-80
2024/03/25 09:42:57;;;;;;;12.67;3.90;;;;;;;;;;4975339;28;20309;-79
2024/03/25 09:45:25;;;;;;;10.30;4.17;;;;;;;;;;4974414;28;25288;-78
2024/03/25 09:47:51;;;;;;;11.37;3.80;;;;;;;;;;4979785;28;20224;-79
2024/03/25 09:50:19;;;;;;;11.57;3.57;;;;;;;;;;4985706;28;20221;-79
2024/03/25 09:52:51;;;;;;;11.27;3.40;;;;;;;;;;4997738;28;20226;-79
2024/03/25 09:55:19;;;;;;;11.13;3.60;;;;;;;;;;4990813;28;20233;-79
2024/03/25 09:57:44;;;;;;;8.67;3.23;;;;;;;;;;4995152;28;20369;-79
2024/03/25 10:00:14;;;;;;;9.93;3.07;;;;;;;;;;5009838;28;20228;-80
2024/03/25 10:02:41;;;;;;;11.00;2.93;;;;;;;;;;4989182;28;20301;-79
2024/03/25 10:05:07;;;;;;;8.37;2.60;;;;;;;;;;4977330;28;20264;-79
2024/03/25 10:07:32;;;;;;;10.00;2.40;;;;;;;;;;4994294;28;20221;-79
2024/03/25 10:09:58;;;;;;;7.00;2.20;;;;;;;;;;4957421;28;20229;-79
2024/03/25 10:12:26;;;;;;;7.43;2.77;;;;;;;;;;4986761;28;20221;-80
2024/03/25 10:14:51;;;;;;;10.13;2.57;;;;;;;;;;4989582;28;20240;-80
2024/03/25 10:17:17;;;;;;;4.23;2.03;;;;;;;;;;4982186;28;20854;-80
2024/03/25 10:19:42;;;;;;;7.63;1.90;;;;;;;;;;4989578;28;20232;-78
2024/03/25 10:22:10;;;;;;;5.23;1.90;;;;;;;;;;5016392;28;20225;-78
2024/03/25 10:24:48;;;;;;;7.97;1.93;;;;;;;;;;4988224;28;20295;-79
2024/03/25 10:27:20;;;;;;;10.07;2.67;;;;;;;;;;4993078;28;20249;-78
2024/03/25 10:29:51;;;;;;;8.40;2.60;;;;;;;;;;5003522;28;20277;-80
2024/03/25 10:32:17;;;;;;;6.23;2.10;;;;;;;;;;4995979;28;20225;-78
2024/03/25 10:34:42;;;;;;;7.47;2.30;;;;;;;;;;5010727;28;20244;-80
2024/03/25 10:37:10;;;;;;;10.07;2.60;;;;;;;;;;4965303;28;20221;-79
2024/03/25 10:39:43;;;;;;;7.40;2.23;;;;;;;;;;4977717;28;20256;-79
2024/03/25 10:42:09;;;;;;;9.27;2.50;;;;;;;;;;4986759;28;20229;-80
2024/03/25 10:44:34;;;;;;;8.30;2.13;;;;;;;;;;4978082;28;20232;-79
2024/03/25 10:47:05;;;;;;;8.80;2.10;;;;;;;;;;4979802;28;20256;-80
2024/03/25 10:49:39;;;;;;;9.43;2.10;;;;;;;;;;5002491;28;20232;-79
2024/03/25 10:52:07;;;;;;;6.73;2.10;;;;;;;;;;4991179;28;20229;-81
2024/03/25 10:54:37;;;;;;;4.00;1.57;;;;;;;;;;4978654;28;20248;-79
2024/03/25 10:57:05;;;;;;;6.13;1.63;;;;;;;;;;4987177;28;20879;-79
2024/03/25 10:59:31;;;;;;;3.70;1.40;;;;;;;;;;5006014;28;20221;-79
2024/03/25 11:01:58;;;;;;;3.57;1.47;;;;;;;;;;4970766;28;21002;-79
2024/03/25 11:04:24;;;;;;;4.43;1.53;;;;;;;;;;5006124;28;20388;-79
2024/03/25 11:06:52;;;;;;;6.23;1.67;;;;;;;;;;5004670;28;20256;-78
2024/03/25 11:09:26;;;;;;;6.53;1.90;;;;;;;;;;4986545;28;20225;-79
2024/03/25 11:11:54;;;;;;;5.63;2.27;;;;;;;;;;5006124;28;20225;-80
2024/03/25 11:14:20;;;;;;;6.83;2.03;;;;;;;;;;5008397;28;20209;-78
2024/03/25 11:16:52;;;;;;;7.80;2.60;;;;;;;;;;4996342;28;20239;-79
2024/03/25 11:19:18;;;;;;;6.67;2.63;;;;;;;;;;4989583;28;20251;-78
2024/03/25 11:21:43;;;;;;;6.53;2.60;;;;;;;;;;4962765;28;20241;-78
2024/03/25 11:24:09;;;;;;;7.20;2.57;;;;;;;;;;4973364;28;20225;-79
2024/03/25 11:26:37;;;;;;;10.73;2.87;;;;;;;;;;4969940;28;20288;-79
2024/03/25 11:29:03;;;;;;;11.37;2.63;;;;;;;;;;4988570;28;20230;-79
2024/03/25 11:31:31;;;;;;;8.93;2.60;;;;;;;;;;5005795;28;20247;-78
2024/03/25 11:33:59;;;;;;;5.40;2.20;;;;;;;;;;5002842;28;20233;-78
2024/03/25 11:36:26;;;;;;;6.60;2.60;;;;;;;;;;4999317;28;20241;-78
2024/03/25 11:39:03;;;;;;;7.20;2.40;;;;;;;;;;4959056;28;20235;-78
2024/03/25 11:41:32;;;;;;;5.40;2.20;;;;;;;;;;5002989;28;20279;-78
2024/03/25 11:44:00;;;;;;;7.53;2.40;;;;;;;;;;5006377;28;20263;-79
2024/03/25 11:46:25;;;;;;;7.93;2.50;;;;;;;;;;4975792;28;20617;-79
2024/03/25 11:48:53;;;;;;;6.90;1.90;;;;;;;;;;4974334;28;20218;-78
2024/03/25 11:51:19;;;;;;;7.37;2.07;;;;;;;;;;4990178;28;20906;-77
2024/03/25 11:53:52;;;;;;;8.90;2.30;;;;;;;;;;5003737;28;20217;-78
2024/03/25 11:56:20;;;;;;;8.53;2.13;;;;;;;;;;4987033;28;20356;-78
2024/03/25 11:58:45;;;;;;;6.03;1.83;;;;;;;;;;4976166;28;20218;-79
2024/03/25 12:01:11;;;;;;;5.23;2.10;;;;;;;;;;5005639;28;20212;-79
2024/03/25 12:03:37;;;;;;;7.07;2.00;;;;;;;;;;5002287;28;20222;-77
2024/03/25 12:06:02;;;;;;;7.17;2.93;;;;;;;;;;4990567;28;20275;-79
2024/03/25 12:08:30;;;;;;;6.53;1.80;;;;;;;;;;5005585;28;20234;-79
2024/03/25 12:13:45;;;;;;;5.23;1.60;;;;;;;;;;4988025;28;20257;-78
2024/03/25 12:16:11;;;;;;;4.07;1.80;;;;;;;;;;4988404;28;20837;-79
2024/03/25 12:18:44;;;;;;;8.80;2.37;;;;;;;;;;4974349;28;20217;-80
2024/03/25 12:21:10;;;;;;;5.70;1.70;;;;;;;;;;4962174;28;20214;-78
2024/03/25 12:23:38;;;;;;;6.83;2.07;;;;;;;;;;5006024;28;20229;-78
2024/03/25 12:26:07;;;;;;;5.77;1.63;;;;;;;;;;4992640;28;20230;-78
2024/03/25 12:28:36;;;;;;;6.40;1.97;;;;;;;;;;5001865;28;20232;-80
2024/03/25 12:31:02;;;;;;;6.40;1.80;;;;;;;;;;5004232;28;20225;-79
2024/03/25 12:33:27;;;;;;;4.93;1.57;;;;;;;;;;4981460;28;20320;-79
2024/03/25 12:35:53;;;;;;;8.17;1.90;;;;;;;;;;4985468;28;20242;-79
2024/03/25 12:38:27;;;;;;;4.57;1.60;;;;;;;;;;4993110;28;20324;-78
2024/03/25 12:41:03;;;;;;;5.33;1.70;;;;;;;;;;4988413;28;20300;-80
2024/03/25 12:43:32;;;;;;;6.20;1.80;;;;;;;;;;4989794;28;20274;-79
2024/03/25 12:46:00;;;;;;;4.13;1.60;;;;;;;;;;4988068;28;20373;-80
2024/03/25 12:48:25;;;;;;;5.87;1.77;;;;;;;;;;5004612;28;20225;-78
2024/03/25 12:50:52;;;;;;;6.03;1.97;;;;;;;;;;4974633;28;20284;-79
2024/03/25 12:53:18;;;;;;;6.67;1.80;;;;;;;;;;4976795;28;20217;-77
2024/03/25 12:55:46;;;;;;;6.60;1.90;;;;;;;;;;4984040;28;20350;-78
2024/03/25 12:58:11;;;;;;;5.20;1.90;;;;;;;;;;4970602;28;20308;-77
2024/03/25 13:00:38;;;;;;;4.77;1.97;;;;;;;;;;5003621;28;20266;-79
2024/03/25 13:03:04;;;;;;;4.40;2.00;;;;;;;;;;5025770;28;20232;-79
2024/03/25 13:05:30;;;;;;;4.70;1.80;;;;;;;;;;4994007;28;20231;-78
2024/03/25 13:07:55;;;;;;;5.93;1.90;;;;;;;;;;5004189;28;20237;-79
2024/03/25 13:10:21;;;;;;;6.60;1.70;;;;;;;;;;5007142;28;20231;-78
2024/03/25 13:12:46;;;;;;;6.47;1.93;;;;;;;;;;4981284;28;20227;-79
2024/03/25 13:15:14;;;;;;;5.43;1.60;;;;;;;;;;4977117;28;21207;-79
2024/03/25 13:17:39;;;;;;;5.13;1.80;;;;;;;;;;4973773;28;20249;-78
2024/03/25 13:20:05;;;;;;;4.10;1.60;;;;;;;;;;4986753;28;20295;-79
2024/03/25 13:22:32;;;;;;;3.57;1.63;;;;;;;;;;4995437;28;20232;-78
2024/03/25 13:24:58;;;;;;;6.73;1.90;;;;;;;;;;4991018;28;20217;-78
2024/03/25 13:27:25;;;;;;;6.47;1.80;;;;;;;;;;4980747;28;20229;-78
2024/03/25 13:29:54;;;;;;;6.40;1.60;;;;;;;;;;4986261;28;20240;-79
2024/03/25 13:32:20;;;;;;;5.70;1.67;;;;;;;;;;4969659;28;20569;-79
2024/03/25 13:34:46;;;;;;;4.00;1.63;;;;;;;;;;4986815;28;21096;-81
2024/03/25 13:37:11;;;;;;;5.20;1.53;;;;;;;;;;4974684;28;20225;-79
2024/03/25 13:39:37;;;;;;;3.57;1.30;;;;;;;;;;4956664;28;20225;-77
2024/03/25 13:42:03;;;;;;;3.70;1.70;;;;;;;;;;4990229;28;20283;-78
2024/03/25 13:44:28;;;;;;;5.10;1.33;;;;;;;;;;5005272;28;20921;-80
2024/03/25 13:46:54;;;;;;;5.50;1.53;;;;;;;;;;4993572;28;20260;-78
2024/03/25 13:49:23;;;;;;;6.43;1.50;;;;;;;;;;4955705;28;20218;-78
2024/03/25 13:51:56;;;;;;;5.40;1.13;;;;;;;;;;4989111;28;20222;-78
2024/03/25 13:54:21;;;;;;;3.67;1.20;;;;;;;;;;4972292;28;20356;-78
2024/03/25 13:56:49;;;;;;;4.57;1.33;;;;;;;;;;5001153;28;20356;-79
2024/03/25 13:59:15;;;;;;;7.07;1.63;;;;;;;;;;5000519;28;20213;-77
2024/03/25 14:01:44;;;;;;;3.60;1.50;;;;;;;;;;5015565;28;20252;-78
2024/03/25 14:04:11;;;;;;;5.63;1.40;;;;;;;;;;4997631;28;20233;-78
2024/03/25 14:06:40;;;;;;;5.63;1.47;;;;;;;;;;5014171;28;20235;-78
2024/03/25 14:09:06;;;;;;;5.70;1.60;;;;;;;;;;4985605;28;20261;-77
2024/03/25 14:11:31;;;;;;;7.30;1.33;;;;;;;;;;4999104;28;20732;-79
2024/03/25 14:13:57;;;;;;;4.87;1.40;;;;;;;;;;4992580;28;20269;-79
2024/03/25 14:16:24;;;;;;;4.93;1.50;;;;;;;;;;4982528;28;20229;-77
2024/03/25 14:18:50;;;;;;;6.13;1.40;;;;;;;;;;5009947;28;20220;-77
2024/03/25 14:21:15;;;;;;;4.83;1.90;;;;;;;;;;5011321;28;20229;-77
2024/03/25 14:23:43;;;;;;;8.47;1.83;;;;;;;;;;4995815;28;20762;-77
2024/03/25 14:26:12;;;;;;;6.23;1.57;;;;;;;;;;5009626;28;20237;-78
2024/03/25 14:28:43;;;;;;;4.97;1.43;;;;;;;;;;5009576;28;20221;-77
2024/03/25 14:31:08;;;;;;;6.30;1.50;;;;;;;;;;4996992;28;20232;-78
2024/03/25 14:33:34;;;;;;;2.97;1.20;;;;;;;;;;5008429;28;20226;-79
2024/03/25 14:36:03;;;;;;;4.53;1.70;;;;;;;;;;5008064;28;20233;-79
2024/03/25 14:38:29;;;;;;;6.70;2.50;;;;;;;;;;4990005;28;20232;-79
2024/03/25 14:40:54;;;;;;;5.70;3.00;;;;;;;;;;5007839;28;20222;-80
2024/03/25 14:43:23;;;;;;;7.20;1.70;;;;;;;;;;5011981;28;20230;-77
2024/03/25 14:45:48;;;;;;;2.87;1.47;;;;;;;;;;4988750;28;20698;-78